LOT67V LCPH-EPWA
Flight info
| Callsign | LOT67V |
|---|---|
| Flight time | N/A |
| Altitude | 38000 |
| Route | GENOS DCT PEDER M855 TOMBI UM855 AYT UQ23 OSVEL UL619 MAKOL DCT KARIL DCT KEKED DCT LENOV DCT KONZI DCT LOGDA |
| Aircraft | B38M/M-SDE1FGHILORVWXY/HB1 |
Departure
| Time | N/A |
|---|---|
| Airport | Paphos International Airport (LCPH) |
Arrival
| Time | 2026-04-30 20:27 |
|---|---|
| Airport | Warsaw Chopin Airport (EPWA) |
| Time | Latitude | Longitude | Altitude | Speed | Heading |
|---|---|---|---|---|---|
| 2026-04-30 17:39 | 35.20967 | 31.27558 | 29272 ft | 423 kts | 334° |
| 2026-04-30 17:41 | 35.41976 | 31.16243 | 31922 ft | 439 kts | 334° |
| 2026-04-30 17:42 | 35.47588 | 31.13211 | 32570 ft | 443 kts | 334° |
| 2026-04-30 17:42 | 35.56037 | 31.08641 | 33664 ft | 441 kts | 334° |
| 2026-04-30 17:43 | 35.61634 | 31.05607 | 34164 ft | 438 kts | 333° |
| 2026-04-30 17:44 | 35.69995 | 31.01065 | 34851 ft | 437 kts | 333° |
| 2026-04-30 17:44 | 35.78307 | 30.96538 | 35545 ft | 436 kts | 333° |
| 2026-04-30 17:46 | 35.92178 | 30.88960 | 36736 ft | 436 kts | 332° |
| 2026-04-30 17:47 | 36.03316 | 30.83018 | 37560 ft | 439 kts | 341° |
| 2026-04-30 17:48 | 36.15694 | 30.82070 | 38005 ft | 448 kts | 354° |
| 2026-04-30 17:48 | 36.24922 | 30.81751 | 38006 ft | 447 kts | 354° |
| 2026-04-30 17:50 | 36.49829 | 30.80909 | 38002 ft | 447 kts | 354° |
| 2026-04-30 17:52 | 36.68487 | 30.80266 | 38015 ft | 447 kts | 354° |
| 2026-04-30 17:54 | 36.96522 | 30.80090 | 38018 ft | 452 kts | 1° |
| 2026-04-30 17:56 | 37.21519 | 30.83602 | 38037 ft | 452 kts | 2° |
| 2026-04-30 17:58 | 37.40314 | 30.86271 | 38053 ft | 453 kts | 2° |
| 2026-04-30 18:00 | 37.65338 | 30.89847 | 38075 ft | 453 kts | 2° |
| 2026-04-30 18:01 | 37.80971 | 30.92093 | 38074 ft | 453 kts | 2° |
| 2026-04-30 18:02 | 37.99751 | 30.94804 | 38059 ft | 452 kts | 2° |
| 2026-04-30 18:04 | 38.18480 | 30.97521 | 38037 ft | 452 kts | 2° |
| 2026-04-30 18:06 | 38.43461 | 31.01167 | 38013 ft | 451 kts | 2° |
| 2026-04-30 18:07 | 38.55213 | 30.98046 | 38024 ft | 435 kts | 334° |
| 2026-04-30 18:08 | 38.63623 | 30.93663 | 38004 ft | 435 kts | 333° |
| 2026-04-30 18:10 | 38.85959 | 30.81735 | 38007 ft | 435 kts | 333° |
| 2026-04-30 18:11 | 39.05480 | 30.71241 | 38007 ft | 435 kts | 333° |
| 2026-04-30 18:13 | 39.19449 | 30.63692 | 38011 ft | 436 kts | 333° |
| 2026-04-30 18:14 | 39.33421 | 30.56109 | 38012 ft | 435 kts | 333° |
| 2026-04-30 18:15 | 39.50127 | 30.46999 | 38007 ft | 435 kts | 333° |
| 2026-04-30 18:16 | 39.61284 | 30.40888 | 38014 ft | 435 kts | 333° |
| 2026-04-30 18:17 | 39.66851 | 30.37831 | 38017 ft | 434 kts | 333° |
| 2026-04-30 18:18 | 39.75170 | 30.33252 | 38019 ft | 434 kts | 333° |
| 2026-04-30 18:18 | 39.80739 | 30.30181 | 38020 ft | 433 kts | 333° |
| 2026-04-30 18:19 | 39.86290 | 30.27114 | 38021 ft | 433 kts | 332° |
| 2026-04-30 18:19 | 39.91833 | 30.24045 | 38020 ft | 433 kts | 332° |
| 2026-04-30 18:20 | 39.97383 | 30.20968 | 38016 ft | 432 kts | 332° |
| 2026-04-30 18:20 | 40.02912 | 30.17896 | 38016 ft | 432 kts | 332° |
| 2026-04-30 18:21 | 40.08407 | 30.14839 | 38020 ft | 432 kts | 332° |
| 2026-04-30 18:21 | 40.13932 | 30.11759 | 38021 ft | 431 kts | 332° |
| 2026-04-30 18:22 | 40.19446 | 30.08680 | 38026 ft | 430 kts | 332° |
| 2026-04-30 18:22 | 40.27695 | 30.04064 | 38020 ft | 429 kts | 332° |
| 2026-04-30 18:23 | 40.33184 | 30.00984 | 38027 ft | 428 kts | 332° |
| 2026-04-30 18:23 | 40.38645 | 29.97916 | 38048 ft | 429 kts | 332° |
| 2026-04-30 18:24 | 40.46871 | 29.93283 | 38047 ft | 428 kts | 331° |
| 2026-04-30 18:25 | 40.52313 | 29.90212 | 38056 ft | 428 kts | 331° |
| 2026-04-30 18:25 | 40.60537 | 29.85560 | 38067 ft | 427 kts | 331° |
| 2026-04-30 18:26 | 40.68686 | 29.80938 | 38072 ft | 426 kts | 330° |
| 2026-04-30 18:27 | 40.75932 | 29.76818 | 38074 ft | 425 kts | 330° |
| 2026-04-30 18:28 | 40.84081 | 29.72172 | 38070 ft | 425 kts | 330° |
| 2026-04-30 18:28 | 40.92210 | 29.67526 | 38076 ft | 424 kts | 330° |
| 2026-04-30 18:29 | 41.03035 | 29.61321 | 38075 ft | 423 kts | 330° |
| 2026-04-30 18:30 | 41.13818 | 29.55119 | 38089 ft | 423 kts | 330° |
| 2026-04-30 18:31 | 41.22069 | 29.50821 | 38088 ft | 429 kts | 337° |
| 2026-04-30 18:32 | 41.30704 | 29.47514 | 38083 ft | 430 kts | 336° |
| 2026-04-30 18:33 | 41.39297 | 29.44247 | 38090 ft | 430 kts | 336° |
| 2026-04-30 18:33 | 41.47928 | 29.40957 | 38098 ft | 430 kts | 336° |
| 2026-04-30 18:34 | 41.56563 | 29.37657 | 38101 ft | 430 kts | 336° |
| 2026-04-30 18:35 | 41.62322 | 29.35451 | 38105 ft | 430 kts | 336° |
| 2026-04-30 18:35 | 41.68072 | 29.33245 | 38105 ft | 431 kts | 336° |
| 2026-04-30 18:36 | 41.76702 | 29.29925 | 38114 ft | 432 kts | 336° |
| 2026-04-30 18:37 | 41.85367 | 29.26582 | 38118 ft | 433 kts | 336° |
| 2026-04-30 18:37 | 41.91188 | 29.24331 | 38122 ft | 434 kts | 336° |
| 2026-04-30 18:38 | 41.96992 | 29.22083 | 38131 ft | 436 kts | 336° |
| 2026-04-30 18:38 | 42.02847 | 29.19811 | 38131 ft | 438 kts | 336° |
| 2026-04-30 18:39 | 42.08694 | 29.17538 | 38137 ft | 439 kts | 336° |
| 2026-04-30 18:39 | 42.14558 | 29.15250 | 38140 ft | 439 kts | 335° |
| 2026-04-30 18:39 | 42.17328 | 29.13611 | 38131 ft | 422 kts | 319° |
| 2026-04-30 18:40 | 42.19676 | 29.11316 | 38136 ft | 421 kts | 317° |
| 2026-04-30 18:40 | 42.24366 | 29.06570 | 38146 ft | 421 kts | 316° |
| 2026-04-30 18:41 | 42.28989 | 29.01754 | 38151 ft | 422 kts | 315° |
| 2026-04-30 18:41 | 42.33635 | 28.96869 | 38158 ft | 422 kts | 315° |
| 2026-04-30 18:42 | 42.38252 | 28.92000 | 38158 ft | 422 kts | 315° |
| 2026-04-30 18:42 | 42.45204 | 28.84651 | 38168 ft | 423 kts | 315° |
| 2026-04-30 18:45 | 42.70759 | 28.57450 | 38196 ft | 426 kts | 316° |
| 2026-04-30 18:46 | 42.75436 | 28.52440 | 38192 ft | 426 kts | 316° |
| 2026-04-30 18:46 | 42.80076 | 28.47461 | 38200 ft | 426 kts | 316° |
| 2026-04-30 18:47 | 42.84746 | 28.42438 | 38204 ft | 426 kts | 316° |
| 2026-04-30 18:47 | 42.89376 | 28.37449 | 38203 ft | 426 kts | 316° |
| 2026-04-30 18:48 | 42.94034 | 28.32420 | 38214 ft | 426 kts | 316° |
| 2026-04-30 18:48 | 42.98696 | 28.27377 | 38214 ft | 426 kts | 316° |
| 2026-04-30 18:49 | 43.03328 | 28.22356 | 38221 ft | 425 kts | 316° |
| 2026-04-30 18:49 | 43.07929 | 28.17358 | 38222 ft | 424 kts | 316° |
| 2026-04-30 18:50 | 43.12571 | 28.12307 | 38223 ft | 424 kts | 316° |
| 2026-04-30 18:50 | 43.17184 | 28.07277 | 38219 ft | 424 kts | 316° |
| 2026-04-30 18:51 | 43.21790 | 28.02244 | 38214 ft | 424 kts | 316° |
| 2026-04-30 18:51 | 43.26399 | 27.97199 | 38216 ft | 423 kts | 316° |
| 2026-04-30 18:52 | 43.30993 | 27.92159 | 38218 ft | 423 kts | 316° |
| 2026-04-30 18:52 | 43.35579 | 27.87119 | 38214 ft | 423 kts | 316° |
| 2026-04-30 18:53 | 43.40171 | 27.82061 | 38215 ft | 424 kts | 316° |
| 2026-04-30 18:53 | 43.44771 | 27.76985 | 38219 ft | 424 kts | 316° |
| 2026-04-30 18:54 | 43.49392 | 27.71875 | 38230 ft | 424 kts | 316° |
| 2026-04-30 18:54 | 43.53985 | 27.66786 | 38238 ft | 425 kts | 316° |
| 2026-04-30 18:55 | 43.58516 | 27.61756 | 38247 ft | 426 kts | 316° |
| 2026-04-30 18:55 | 43.65316 | 27.54187 | 38255 ft | 427 kts | 316° |
| 2026-04-30 18:56 | 43.72204 | 27.46499 | 38255 ft | 428 kts | 316° |
| 2026-04-30 18:57 | 43.79146 | 27.38724 | 38262 ft | 429 kts | 316° |
| 2026-04-30 18:57 | 43.83801 | 27.33498 | 38273 ft | 429 kts | 316° |
| 2026-04-30 18:58 | 43.90765 | 27.25658 | 38276 ft | 430 kts | 316° |
| 2026-04-30 18:59 | 43.97724 | 27.17803 | 38283 ft | 430 kts | 316° |
| 2026-04-30 19:00 | 44.06962 | 27.07334 | 38292 ft | 430 kts | 316° |
| 2026-04-30 19:01 | 44.16205 | 26.96816 | 38297 ft | 429 kts | 317° |
| 2026-04-30 19:02 | 44.22922 | 26.89144 | 38298 ft | 429 kts | 316° |
| 2026-04-30 19:03 | 44.32159 | 26.78557 | 38304 ft | 430 kts | 317° |
| 2026-04-30 19:04 | 44.41390 | 26.67932 | 38306 ft | 430 kts | 317° |
| 2026-04-30 19:05 | 44.50366 | 26.57556 | 38310 ft | 431 kts | 317° |
| 2026-04-30 19:06 | 44.59601 | 26.46837 | 38327 ft | 431 kts | 317° |
| 2026-04-30 19:06 | 44.66485 | 26.38819 | 38333 ft | 432 kts | 317° |
| 2026-04-30 19:07 | 44.73449 | 26.30678 | 38334 ft | 432 kts | 317° |
| 2026-04-30 19:08 | 44.82692 | 26.19835 | 38330 ft | 433 kts | 317° |
| 2026-04-30 19:09 | 44.89611 | 26.11686 | 38331 ft | 433 kts | 317° |
| 2026-04-30 19:09 | 44.94245 | 26.06216 | 38333 ft | 434 kts | 317° |
| 2026-04-30 19:10 | 45.03533 | 25.95211 | 38341 ft | 435 kts | 317° |
| 2026-04-30 19:11 | 45.10453 | 25.86982 | 38340 ft | 435 kts | 317° |
| 2026-04-30 19:12 | 45.14238 | 25.82469 | 38342 ft | 435 kts | 317° |
| 2026-04-30 19:12 | 45.18964 | 25.76821 | 38350 ft | 436 kts | 317° |
| 2026-04-30 19:13 | 45.28985 | 25.64810 | 38345 ft | 436 kts | 317° |
| 2026-04-30 19:14 | 45.32839 | 25.60174 | 38362 ft | 437 kts | 318° |
| 2026-04-30 19:14 | 45.37480 | 25.54578 | 38349 ft | 437 kts | 318° |
| 2026-04-30 19:15 | 45.42114 | 25.48980 | 38350 ft | 437 kts | 318° |
| 2026-04-30 19:15 | 45.49821 | 25.39643 | 38339 ft | 437 kts | 318° |
| 2026-04-30 19:16 | 45.53652 | 25.34988 | 38333 ft | 437 kts | 318° |
| 2026-04-30 19:17 | 45.60618 | 25.26503 | 38341 ft | 438 kts | 318° |
| 2026-04-30 19:17 | 45.67363 | 25.18260 | 38351 ft | 438 kts | 318° |
| 2026-04-30 19:18 | 45.74298 | 25.09756 | 38347 ft | 437 kts | 318° |
| 2026-04-30 19:19 | 45.78925 | 25.04067 | 38354 ft | 437 kts | 318° |
| 2026-04-30 19:19 | 45.85811 | 24.95574 | 38348 ft | 437 kts | 319° |
| 2026-04-30 19:20 | 45.90420 | 24.89873 | 38358 ft | 437 kts | 318° |
| 2026-04-30 19:21 | 45.97268 | 24.81380 | 38348 ft | 437 kts | 318° |
| 2026-04-30 19:22 | 46.06539 | 24.69834 | 38347 ft | 437 kts | 319° |
| 2026-04-30 19:23 | 46.20326 | 24.52567 | 38341 ft | 438 kts | 319° |
| 2026-04-30 19:24 | 46.27214 | 24.43895 | 38324 ft | 437 kts | 319° |
| 2026-04-30 19:25 | 46.38633 | 24.29451 | 38320 ft | 437 kts | 319° |
| 2026-04-30 19:26 | 46.47772 | 24.17833 | 38319 ft | 436 kts | 319° |
| 2026-04-30 19:27 | 46.54614 | 24.09099 | 38318 ft | 436 kts | 319° |
| 2026-04-30 19:28 | 46.61385 | 24.00425 | 38321 ft | 437 kts | 319° |
| 2026-04-30 19:29 | 46.70558 | 23.88628 | 38300 ft | 437 kts | 319° |
| 2026-04-30 19:30 | 46.79569 | 23.76984 | 38295 ft | 437 kts | 319° |
| 2026-04-30 19:31 | 46.88741 | 23.65074 | 38286 ft | 438 kts | 319° |
| 2026-04-30 19:31 | 46.95495 | 23.56269 | 38308 ft | 438 kts | 319° |
| 2026-04-30 19:32 | 47.00027 | 23.50343 | 38310 ft | 439 kts | 319° |
| 2026-04-30 19:32 | 47.04570 | 23.44387 | 38314 ft | 439 kts | 319° |
| 2026-04-30 19:33 | 47.09113 | 23.38418 | 38312 ft | 439 kts | 319° |
| 2026-04-30 19:33 | 47.13658 | 23.32433 | 38311 ft | 440 kts | 319° |
| 2026-04-30 19:34 | 47.18212 | 23.26420 | 38304 ft | 440 kts | 319° |
| 2026-04-30 19:35 | 47.25053 | 23.17363 | 38317 ft | 440 kts | 319° |
| 2026-04-30 19:35 | 47.29617 | 23.11304 | 38304 ft | 440 kts | 319° |
| 2026-04-30 19:36 | 47.34144 | 23.05280 | 38310 ft | 441 kts | 319° |
| 2026-04-30 19:36 | 47.40953 | 22.96193 | 38320 ft | 441 kts | 319° |
| 2026-04-30 19:37 | 47.45494 | 22.90115 | 38316 ft | 441 kts | 320° |
| 2026-04-30 19:37 | 47.50043 | 22.84013 | 38316 ft | 441 kts | 320° |
| 2026-04-30 19:38 | 47.54582 | 22.77908 | 38307 ft | 441 kts | 320° |
| 2026-04-30 19:38 | 47.59054 | 22.71880 | 38317 ft | 441 kts | 320° |
| 2026-04-30 19:39 | 47.63633 | 22.65693 | 38314 ft | 441 kts | 320° |
| 2026-04-30 19:39 | 47.68095 | 22.59648 | 38326 ft | 441 kts | 319° |
| 2026-04-30 19:40 | 47.72685 | 22.53416 | 38323 ft | 441 kts | 319° |
| 2026-04-30 19:40 | 47.77208 | 22.47259 | 38323 ft | 441 kts | 320° |
| 2026-04-30 19:41 | 47.81553 | 22.40781 | 38335 ft | 442 kts | 315° |
| 2026-04-30 19:41 | 47.85790 | 22.34146 | 38332 ft | 442 kts | 316° |
| 2026-04-30 19:42 | 47.90027 | 22.27575 | 38328 ft | 442 kts | 316° |
| 2026-04-30 19:42 | 47.94293 | 22.20947 | 38331 ft | 442 kts | 316° |
| 2026-04-30 19:43 | 47.98552 | 22.14318 | 38333 ft | 443 kts | 316° |
| 2026-04-30 19:44 | 48.04949 | 22.04325 | 38337 ft | 443 kts | 316° |
| 2026-04-30 19:44 | 48.09200 | 21.97665 | 38338 ft | 443 kts | 316° |
| 2026-04-30 19:45 | 48.13426 | 21.91026 | 38337 ft | 443 kts | 316° |
| 2026-04-30 19:45 | 48.17681 | 21.84327 | 38336 ft | 444 kts | 316° |
| 2026-04-30 19:46 | 48.21938 | 21.77604 | 38338 ft | 444 kts | 316° |
| 2026-04-30 19:46 | 48.26185 | 21.70882 | 38336 ft | 444 kts | 316° |
| 2026-04-30 19:47 | 48.30438 | 21.64133 | 38338 ft | 444 kts | 316° |
| 2026-04-30 19:47 | 48.34678 | 21.57386 | 38340 ft | 444 kts | 316° |
| 2026-04-30 19:48 | 48.38918 | 21.50623 | 38340 ft | 444 kts | 316° |
| 2026-04-30 19:48 | 48.43152 | 21.43850 | 38345 ft | 444 kts | 316° |
| 2026-04-30 19:49 | 48.47313 | 21.37181 | 38342 ft | 444 kts | 316° |
| 2026-04-30 19:49 | 48.51789 | 21.30677 | 38325 ft | 436 kts | 331° |
| 2026-04-30 19:49 | 48.54520 | 21.28773 | 38354 ft | 430 kts | 346° |
| 2026-04-30 19:50 | 48.60326 | 21.26512 | 38347 ft | 431 kts | 348° |
| 2026-04-30 19:50 | 48.66162 | 21.24431 | 38346 ft | 430 kts | 349° |
| 2026-04-30 19:51 | 48.71998 | 21.22420 | 38348 ft | 430 kts | 349° |
| 2026-04-30 19:51 | 48.77796 | 21.20430 | 38346 ft | 430 kts | 349° |
| 2026-04-30 19:52 | 48.83621 | 21.18427 | 38347 ft | 429 kts | 349° |
| 2026-04-30 19:52 | 48.89459 | 21.16414 | 38347 ft | 429 kts | 349° |
| 2026-04-30 19:53 | 48.95273 | 21.14405 | 38358 ft | 428 kts | 349° |
| 2026-04-30 19:53 | 49.01048 | 21.12405 | 38363 ft | 428 kts | 350° |
| 2026-04-30 19:54 | 49.06896 | 21.10375 | 38365 ft | 428 kts | 350° |
| 2026-04-30 19:54 | 49.12585 | 21.08396 | 38365 ft | 427 kts | 350° |
| 2026-04-30 19:55 | 49.18463 | 21.06345 | 38371 ft | 427 kts | 350° |
| 2026-04-30 19:55 | 49.24255 | 21.04319 | 38376 ft | 427 kts | 350° |
| 2026-04-30 19:56 | 49.30042 | 21.02292 | 38373 ft | 426 kts | 350° |
| 2026-04-30 19:56 | 49.35842 | 21.00391 | 38374 ft | 425 kts | 352° |
| 2026-04-30 19:57 | 49.41649 | 20.98588 | 38373 ft | 425 kts | 351° |
| 2026-04-30 19:57 | 49.47450 | 20.96774 | 38371 ft | 425 kts | 351° |
| 2026-04-30 19:58 | 49.53235 | 20.94959 | 38370 ft | 424 kts | 352° |
| 2026-04-30 19:58 | 49.59012 | 20.93167 | 38363 ft | 422 kts | 354° |
| 2026-04-30 19:59 | 49.64843 | 20.92521 | 38372 ft | 420 kts | 358° |
| 2026-04-30 20:00 | 49.73554 | 20.92093 | 38373 ft | 416 kts | 8° |
| 2026-04-30 20:00 | 49.79303 | 20.92659 | 38364 ft | 417 kts | 5° |
| 2026-04-30 20:01 | 49.87992 | 20.93335 | 38365 ft | 416 kts | 5° |
| 2026-04-30 20:01 | 49.93782 | 20.93771 | 38364 ft | 416 kts | 5° |
| 2026-04-30 20:02 | 50.01447 | 20.94346 | 38359 ft | 415 kts | 5° |
| 2026-04-30 20:03 | 50.10114 | 20.94998 | 38361 ft | 414 kts | 5° |
| 2026-04-30 20:03 | 50.15870 | 20.95432 | 38360 ft | 414 kts | 5° |
| 2026-04-30 20:04 | 50.21616 | 20.95866 | 38362 ft | 413 kts | 5° |
| 2026-04-30 20:05 | 50.30230 | 20.96520 | 38368 ft | 412 kts | 5° |
| 2026-04-30 20:05 | 50.38789 | 20.97171 | 38370 ft | 412 kts | 5° |
| 2026-04-30 20:06 | 50.41654 | 20.97389 | 38031 ft | 413 kts | 5° |
| 2026-04-30 20:06 | 50.44545 | 20.97611 | 37158 ft | 416 kts | 6° |
| 2026-04-30 20:06 | 50.47432 | 20.97832 | 36494 ft | 414 kts | 6° |
| 2026-04-30 20:06 | 50.50299 | 20.98052 | 35950 ft | 409 kts | 6° |
| 2026-04-30 20:07 | 50.53123 | 20.98268 | 35373 ft | 406 kts | 7° |
| 2026-04-30 20:07 | 50.55966 | 20.98487 | 34467 ft | 410 kts | 7° |
| 2026-04-30 20:07 | 50.61554 | 20.98916 | 32780 ft | 398 kts | 8° |
| 2026-04-30 20:08 | 50.64306 | 20.99129 | 31901 ft | 395 kts | 9° |
| 2026-04-30 20:08 | 50.67045 | 20.99340 | 31229 ft | 391 kts | 9° |
| 2026-04-30 20:08 | 50.69749 | 20.99549 | 30586 ft | 387 kts | 10° |
| 2026-04-30 20:08 | 50.72427 | 20.99755 | 29847 ft | 383 kts | 10° |
| 2026-04-30 20:09 | 50.75076 | 20.99958 | 29155 ft | 378 kts | 10° |
| 2026-04-30 20:09 | 50.77686 | 21.00160 | 28528 ft | 372 kts | 9° |
| 2026-04-30 20:09 | 50.82794 | 21.00556 | 27308 ft | 362 kts | 9° |
| 2026-04-30 20:10 | 50.87782 | 21.00944 | 26114 ft | 359 kts | 9° |
| 2026-04-30 20:10 | 50.90285 | 21.01139 | 25499 ft | 361 kts | 9° |
| 2026-04-30 20:10 | 50.92799 | 21.01335 | 24894 ft | 361 kts | 8° |
| 2026-04-30 20:11 | 50.97789 | 21.01724 | 23664 ft | 358 kts | 8° |
| 2026-04-30 20:11 | 51.00270 | 21.01918 | 23015 ft | 354 kts | 8° |
| 2026-04-30 20:11 | 51.02681 | 21.02107 | 22523 ft | 349 kts | 7° |
| 2026-04-30 20:12 | 51.07522 | 21.02487 | 21529 ft | 350 kts | 7° |
| 2026-04-30 20:12 | 51.09954 | 21.02678 | 20954 ft | 348 kts | 7° |
| 2026-04-30 20:12 | 51.12369 | 21.02868 | 20450 ft | 347 kts | 7° |
| 2026-04-30 20:13 | 51.14778 | 21.03058 | 19931 ft | 346 kts | 6° |
| 2026-04-30 20:13 | 51.17174 | 21.03247 | 19414 ft | 344 kts | 6° |
| 2026-04-30 20:13 | 51.19558 | 21.03435 | 18884 ft | 342 kts | 6° |
| 2026-04-30 20:13 | 51.21929 | 21.03622 | 18313 ft | 341 kts | 6° |
| 2026-04-30 20:14 | 51.24294 | 21.03809 | 17737 ft | 339 kts | 6° |
| 2026-04-30 20:14 | 51.26566 | 21.03989 | 17215 ft | 338 kts | 6° |
| 2026-04-30 20:14 | 51.29000 | 21.04182 | 16664 ft | 336 kts | 5° |
| 2026-04-30 20:14 | 51.31332 | 21.04367 | 16144 ft | 335 kts | 5° |
| 2026-04-30 20:15 | 51.33648 | 21.04550 | 15620 ft | 333 kts | 5° |
| 2026-04-30 20:15 | 51.35959 | 21.04734 | 15104 ft | 331 kts | 5° |
| 2026-04-30 20:15 | 51.38257 | 21.04917 | 14696 ft | 330 kts | 5° |
| 2026-04-30 20:15 | 51.40553 | 21.05100 | 14408 ft | 330 kts | 5° |
| 2026-04-30 20:16 | 51.42812 | 21.05280 | 13975 ft | 329 kts | 5° |
| 2026-04-30 20:16 | 51.45093 | 21.05462 | 13431 ft | 327 kts | 5° |
| 2026-04-30 20:16 | 51.47362 | 21.05643 | 12906 ft | 326 kts | 5° |
| 2026-04-30 20:16 | 51.49584 | 21.05821 | 12395 ft | 325 kts | 4° |
| 2026-04-30 20:17 | 51.51883 | 21.06005 | 11866 ft | 323 kts | 4° |
| 2026-04-30 20:17 | 51.54130 | 21.06185 | 11347 ft | 322 kts | 4° |
| 2026-04-30 20:17 | 51.56365 | 21.06364 | 10829 ft | 321 kts | 4° |
| 2026-04-30 20:17 | 51.58593 | 21.06542 | 10308 ft | 319 kts | 4° |
| 2026-04-30 20:18 | 51.60802 | 21.06720 | 9745 ft | 317 kts | 4° |
| 2026-04-30 20:18 | 51.62998 | 21.06896 | 9208 ft | 314 kts | 4° |
| 2026-04-30 20:18 | 51.65168 | 21.07071 | 8694 ft | 310 kts | 4° |
| 2026-04-30 20:18 | 51.67305 | 21.07243 | 8195 ft | 306 kts | 4° |
| 2026-04-30 20:19 | 51.69433 | 21.07415 | 7555 ft | 307 kts | 4° |
| 2026-04-30 20:19 | 51.71561 | 21.07586 | 6886 ft | 309 kts | 3° |
| 2026-04-30 20:19 | 51.73719 | 21.07760 | 6303 ft | 306 kts | 3° |
| 2026-04-30 20:19 | 51.75797 | 21.07929 | 5981 ft | 296 kts | 3° |
| 2026-04-30 20:20 | 51.77811 | 21.08092 | 5802 ft | 283 kts | 3° |
| 2026-04-30 20:20 | 51.79734 | 21.08248 | 5608 ft | 271 kts | 3° |
| 2026-04-30 20:20 | 51.81604 | 21.08399 | 5422 ft | 269 kts | 3° |
| 2026-04-30 20:20 | 51.83475 | 21.08551 | 5233 ft | 269 kts | 3° |
| 2026-04-30 20:21 | 51.85344 | 21.08703 | 5053 ft | 269 kts | 3° |
| 2026-04-30 20:21 | 51.87210 | 21.08855 | 4878 ft | 268 kts | 2° |
| 2026-04-30 20:21 | 51.89064 | 21.09005 | 4710 ft | 263 kts | 2° |
| 2026-04-30 20:21 | 51.90857 | 21.09152 | 4562 ft | 252 kts | 2° |
| 2026-04-30 20:22 | 51.92569 | 21.09291 | 4409 ft | 241 kts | 2° |
| 2026-04-30 20:22 | 51.94213 | 21.09425 | 4260 ft | 232 kts | 2° |
| 2026-04-30 20:22 | 51.95818 | 21.09556 | 4101 ft | 231 kts | 2° |
| 2026-04-30 20:22 | 51.97421 | 21.09687 | 3952 ft | 230 kts | 2° |
| 2026-04-30 20:23 | 51.98973 | 21.09814 | 3785 ft | 222 kts | 2° |
| 2026-04-30 20:23 | 52.00482 | 21.09928 | 3603 ft | 212 kts | 359° |
| 2026-04-30 20:23 | 52.01880 | 21.09525 | 3363 ft | 200 kts | 339° |
| 2026-04-30 20:23 | 52.03090 | 21.08545 | 3142 ft | 190 kts | 330° |
| 2026-04-30 20:24 | 52.04217 | 21.07503 | 2906 ft | 182 kts | 332° |
| 2026-04-30 20:24 | 52.05285 | 21.06561 | 2683 ft | 176 kts | 332° |
| 2026-04-30 20:24 | 52.06382 | 21.05607 | 2455 ft | 175 kts | 332° |
| 2026-04-30 20:24 | 52.07430 | 21.04695 | 2232 ft | 161 kts | 332° |
| 2026-04-30 20:25 | 52.09354 | 21.03018 | 1810 ft | 154 kts | 332° |
| 2026-04-30 20:25 | 52.10245 | 21.02240 | 1609 ft | 138 kts | 332° |
| 2026-04-30 20:26 | 52.11933 | 21.00765 | 1209 ft | 137 kts | 332° |
| 2026-04-30 20:26 | 52.13629 | 20.99289 | 813 ft | 142 kts | 331° |
| 2026-04-30 20:26 | 52.14504 | 20.98512 | 628 ft | 144 kts | 331° |
| 2026-04-30 20:27 | 52.16228 | 20.97012 | 349 ft | 128 kts | 332° |
| 2026-04-30 20:27 | 52.17195 | 20.96245 | 335 ft | 32 kts | 355° |
| 2026-04-30 20:28 | 52.17381 | 20.96261 | 350 ft | 8 kts | 31° |
| 2026-04-30 20:28 | 52.17425 | 20.96440 | 339 ft | 7 kts | 62° |
| 2026-04-30 20:29 | 52.17422 | 20.96608 | 345 ft | 10 kts | 151° |
| 2026-04-30 20:30 | 52.17233 | 20.96774 | 338 ft | 8 kts | 152° |
| 2026-04-30 20:30 | 52.17171 | 20.96893 | 339 ft | 6 kts | 62° |
| 2026-04-30 20:31 | 52.17197 | 20.96974 | 343 ft | 0 kts | 61° |